sensor_id;sensor_type;location;lat;lon;timestamp;temperature;humidity
63435;DHT22;68814;50.872;5.306;2023-07-20T00:02:16;16.40;96.60
63435;DHT22;68814;50.872;5.306;2023-07-20T00:04:42;16.40;96.40
63435;DHT22;68814;50.872;5.306;2023-07-20T00:07:12;16.40;96.30
63435;DHT22;68814;50.872;5.306;2023-07-20T00:09:39;16.30;96.20
63435;DHT22;68814;50.872;5.306;2023-07-20T00:12:06;16.30;96.40
63435;DHT22;68814;50.872;5.306;2023-07-20T00:14:32;16.30;96.40
63435;DHT22;68814;50.872;5.306;2023-07-20T00:16:58;16.30;96.40
63435;DHT22;68814;50.872;5.306;2023-07-20T00:19:25;16.20;96.30
63435;DHT22;68814;50.872;5.306;2023-07-20T00:21:51;16.20;96.20
63435;DHT22;68814;50.872;5.306;2023-07-20T00:24:17;16.20;96.30
63435;DHT22;68814;50.872;5.306;2023-07-20T00:26:47;16.10;96.50
63435;DHT22;68814;50.872;5.306;2023-07-20T00:29:15;16.10;96.70
63435;DHT22;68814;50.872;5.306;2023-07-20T00:31:41;16.00;96.80
63435;DHT22;68814;50.872;5.306;2023-07-20T00:34:08;16.00;96.90
63435;DHT22;68814;50.872;5.306;2023-07-20T00:36:34;15.90;97.10
63435;DHT22;68814;50.872;5.306;2023-07-20T00:39:00;15.90;97.20
63435;DHT22;68814;50.872;5.306;2023-07-20T00:41:30;15.90;97.30
63435;DHT22;68814;50.872;5.306;2023-07-20T00:44:02;15.80;97.30
63435;DHT22;68814;50.872;5.306;2023-07-20T00:46:29;15.80;97.30
63435;DHT22;68814;50.872;5.306;2023-07-20T00:48:57;15.80;97.30
63435;DHT22;68814;50.872;5.306;2023-07-20T00:51:23;15.80;97.40
63435;DHT22;68814;50.872;5.306;2023-07-20T00:53:51;15.80;97.30
63435;DHT22;68814;50.872;5.306;2023-07-20T00:56:17;15.80;97.40
63435;DHT22;68814;50.872;5.306;2023-07-20T00:58:49;15.80;97.30
63435;DHT22;68814;50.872;5.306;2023-07-20T01:01:18;15.80;97.30
63435;DHT22;68814;50.872;5.306;2023-07-20T01:03:44;15.80;97.30
63435;DHT22;68814;50.872;5.306;2023-07-20T01:06:33;15.80;97.20
63435;DHT22;68814;50.872;5.306;2023-07-20T01:09:19;15.90;97.10
63435;DHT22;68814;50.872;5.306;2023-07-20T01:14:48;15.80;96.90
63435;DHT22;68814;50.872;5.306;2023-07-20T01:17:14;15.80;97.00
63435;DHT22;68814;50.872;5.306;2023-07-20T01:19:40;15.80;96.80
63435;DHT22;68814;50.872;5.306;2023-07-20T01:22:21;15.80;96.70
63435;DHT22;68814;50.872;5.306;2023-07-20T01:28:31;15.80;96.60
63435;DHT22;68814;50.872;5.306;2023-07-20T01:33:46;15.90;96.40
63435;DHT22;68814;50.872;5.306;2023-07-20T01:36:13;15.90;96.20
63435;DHT22;68814;50.872;5.306;2023-07-20T01:38:39;15.90;96.30
63435;DHT22;68814;50.872;5.306;2023-07-20T01:41:05;15.90;96.00
63435;DHT22;68814;50.872;5.306;2023-07-20T01:43:31;15.90;96.10
63435;DHT22;68814;50.872;5.306;2023-07-20T01:45:58;15.90;96.10
63435;DHT22;68814;50.872;5.306;2023-07-20T01:48:24;15.90;96.00
63435;DHT22;68814;50.872;5.306;2023-07-20T01:50:50;15.90;96.10
63435;DHT22;68814;50.872;5.306;2023-07-20T01:53:17;15.90;96.00
63435;DHT22;68814;50.872;5.306;2023-07-20T01:55:43;15.90;96.10
63435;DHT22;68814;50.872;5.306;2023-07-20T01:58:09;15.90;96.10
63435;DHT22;68814;50.872;5.306;2023-07-20T02:00:37;15.90;96.10
63435;DHT22;68814;50.872;5.306;2023-07-20T02:03:02;15.90;96.00
63435;DHT22;68814;50.872;5.306;2023-07-20T02:05:28;15.90;96.10
63435;DHT22;68814;50.872;5.306;2023-07-20T02:07:54;15.90;96.00
63435;DHT22;68814;50.872;5.306;2023-07-20T02:10:20;15.80;96.00
63435;DHT22;68814;50.872;5.306;2023-07-20T02:12:46;15.80;96.00
63435;DHT22;68814;50.872;5.306;2023-07-20T02:15:13;15.80;96.00
63435;DHT22;68814;50.872;5.306;2023-07-20T02:17:43;15.70;96.10
63435;DHT22;68814;50.872;5.306;2023-07-20T02:20:09;15.70;96.20
63435;DHT22;68814;50.872;5.306;2023-07-20T02:22:36;15.70;96.20
63435;DHT22;68814;50.872;5.306;2023-07-20T02:25:04;15.70;96.20
63435;DHT22;68814;50.872;5.306;2023-07-20T02:27:30;15.70;96.40
63435;DHT22;68814;50.872;5.306;2023-07-20T02:29:56;15.70;96.30
63435;DHT22;68814;50.872;5.306;2023-07-20T02:32:22;15.60;96.30
63435;DHT22;68814;50.872;5.306;2023-07-20T02:34:49;15.60;96.40
63435;DHT22;68814;50.872;5.306;2023-07-20T02:37:16;15.60;96.50
63435;DHT22;68814;50.872;5.306;2023-07-20T02:39:42;15.60;96.50
63435;DHT22;68814;50.872;5.306;2023-07-20T02:42:07;15.50;96.60
63435;DHT22;68814;50.872;5.306;2023-07-20T02:44:33;15.50;96.80
63435;DHT22;68814;50.872;5.306;2023-07-20T02:46:59;15.50;96.90
63435;DHT22;68814;50.872;5.306;2023-07-20T02:49:25;15.50;97.00
63435;DHT22;68814;50.872;5.306;2023-07-20T02:51:50;15.50;97.00
63435;DHT22;68814;50.872;5.306;2023-07-20T02:54:17;15.50;97.10
63435;DHT22;68814;50.872;5.306;2023-07-20T02:56:42;15.40;97.10
63435;DHT22;68814;50.872;5.306;2023-07-20T02:59:09;15.40;97.00
63435;DHT22;68814;50.872;5.306;2023-07-20T03:01:35;15.40;97.00
63435;DHT22;68814;50.872;5.306;2023-07-20T03:04:01;15.40;97.00
63435;DHT22;68814;50.872;5.306;2023-07-20T03:06:28;15.40;97.00
63435;DHT22;68814;50.872;5.306;2023-07-20T03:08:53;15.40;97.00
63435;DHT22;68814;50.872;5.306;2023-07-20T03:11:20;15.40;97.00
63435;DHT22;68814;50.872;5.306;2023-07-20T03:13:47;15.30;97.10
63435;DHT22;68814;50.872;5.306;2023-07-20T03:16:15;15.30;97.10
63435;DHT22;68814;50.872;5.306;2023-07-20T03:18:41;15.40;97.10
63435;DHT22;68814;50.872;5.306;2023-07-20T03:21:08;15.30;97.10
63435;DHT22;68814;50.872;5.306;2023-07-20T03:23:37;15.30;97.20
63435;DHT22;68814;50.872;5.306;2023-07-20T03:26:05;15.30;97.20
63435;DHT22;68814;50.872;5.306;2023-07-20T03:28:35;15.30;97.20
63435;DHT22;68814;50.872;5.306;2023-07-20T03:31:01;15.30;97.30
63435;DHT22;68814;50.872;5.306;2023-07-20T03:33:38;15.30;97.30
63435;DHT22;68814;50.872;5.306;2023-07-20T03:36:08;15.30;97.40
63435;DHT22;68814;50.872;5.306;2023-07-20T03:38:36;15.30;97.30
63435;DHT22;68814;50.872;5.306;2023-07-20T03:41:02;15.30;97.20
63435;DHT22;68814;50.872;5.306;2023-07-20T03:43:28;15.30;97.10
63435;DHT22;68814;50.872;5.306;2023-07-20T03:45:55;15.30;97.00
63435;DHT22;68814;50.872;5.306;2023-07-20T03:48:24;15.30;97.10
63435;DHT22;68814;50.872;5.306;2023-07-20T03:50:51;15.30;97.00
63435;DHT22;68814;50.872;5.306;2023-07-20T03:53:18;15.30;97.10
63435;DHT22;68814;50.872;5.306;2023-07-20T03:55:45;15.30;97.10
63435;DHT22;68814;50.872;5.306;2023-07-20T03:58:12;15.30;97.20
63435;DHT22;68814;50.872;5.306;2023-07-20T04:00:48;15.30;97.30
63435;DHT22;68814;50.872;5.306;2023-07-20T04:03:14;15.30;97.20
63435;DHT22;68814;50.872;5.306;2023-07-20T04:05:40;15.30;97.20
63435;DHT22;68814;50.872;5.306;2023-07-20T04:08:07;15.30;97.30
63435;DHT22;68814;50.872;5.306;2023-07-20T04:10:52;15.40;97.40
63435;DHT22;68814;50.872;5.306;2023-07-20T04:13:19;15.40;97.50
63435;DHT22;68814;50.872;5.306;2023-07-20T04:15:45;15.40;97.60
63435;DHT22;68814;50.872;5.306;2023-07-20T04:18:12;15.40;97.60
63435;DHT22;68814;50.872;5.306;2023-07-20T04:20:39;15.40;97.70
63435;DHT22;68814;50.872;5.306;2023-07-20T04:23:05;15.40;97.70
63435;DHT22;68814;50.872;5.306;2023-07-20T04:25:31;15.50;97.70
63435;DHT22;68814;50.872;5.306;2023-07-20T04:28:07;15.50;97.80
63435;DHT22;68814;50.872;5.306;2023-07-20T04:30:35;15.60;97.80
63435;DHT22;68814;50.872;5.306;2023-07-20T04:33:02;15.60;97.70
63435;DHT22;68814;50.872;5.306;2023-07-20T04:35:51;15.60;97.80
63435;DHT22;68814;50.872;5.306;2023-07-20T04:38:18;15.60;97.90
63435;DHT22;68814;50.872;5.306;2023-07-20T04:41:03;15.60;97.90
63435;DHT22;68814;50.872;5.306;2023-07-20T04:43:29;15.60;97.90
63435;DHT22;68814;50.872;5.306;2023-07-20T04:45:55;15.70;98.00
63435;DHT22;68814;50.872;5.306;2023-07-20T04:48:24;15.70;98.00
63435;DHT22;68814;50.872;5.306;2023-07-20T04:50:51;15.80;98.10
63435;DHT22;68814;50.872;5.306;2023-07-20T04:53:16;15.80;98.00
63435;DHT22;68814;50.872;5.306;2023-07-20T04:55:49;15.80;97.90
63435;DHT22;68814;50.872;5.306;2023-07-20T04:58:16;15.80;97.90
63435;DHT22;68814;50.872;5.306;2023-07-20T05:00:42;15.90;97.90
63435;DHT22;68814;50.872;5.306;2023-07-20T05:03:09;15.90;97.80
63435;DHT22;68814;50.872;5.306;2023-07-20T05:05:36;15.90;97.80
63435;DHT22;68814;50.872;5.306;2023-07-20T05:08:04;16.00;97.70
63435;DHT22;68814;50.872;5.306;2023-07-20T05:10:30;16.10;97.70
63435;DHT22;68814;50.872;5.306;2023-07-20T05:12:56;16.10;97.60
63435;DHT22;68814;50.872;5.306;2023-07-20T05:15:22;16.20;97.60
63435;DHT22;68814;50.872;5.306;2023-07-20T05:17:52;16.20;97.60
63435;DHT22;68814;50.872;5.306;2023-07-20T05:20:21;16.30;97.50
63435;DHT22;68814;50.872;5.306;2023-07-20T05:22:48;16.30;97.50
63435;DHT22;68814;50.872;5.306;2023-07-20T05:25:14;16.30;97.40
63435;DHT22;68814;50.872;5.306;2023-07-20T05:27:40;16.40;97.30
63435;DHT22;68814;50.872;5.306;2023-07-20T05:30:06;16.40;97.20
63435;DHT22;68814;50.872;5.306;2023-07-20T05:32:35;16.50;97.20
63435;DHT22;68814;50.872;5.306;2023-07-20T05:35:00;16.50;97.20
63435;DHT22;68814;50.872;5.306;2023-07-20T05:37:26;16.60;96.90
63435;DHT22;68814;50.872;5.306;2023-07-20T05:39:51;16.60;97.00
63435;DHT22;68814;50.872;5.306;2023-07-20T05:42:17;16.60;97.00
63435;DHT22;68814;50.872;5.306;2023-07-20T05:44:43;16.70;96.90
63435;DHT22;68814;50.872;5.306;2023-07-20T05:47:09;16.80;96.90
63435;DHT22;68814;50.872;5.306;2023-07-20T05:49:38;16.80;96.70
63435;DHT22;68814;50.872;5.306;2023-07-20T05:52:05;16.90;96.90
63435;DHT22;68814;50.872;5.306;2023-07-20T05:54:31;16.90;96.90
63435;DHT22;68814;50.872;5.306;2023-07-20T05:56:56;17.00;96.50
63435;DHT22;68814;50.872;5.306;2023-07-20T05:59:22;17.00;96.30
63435;DHT22;68814;50.872;5.306;2023-07-20T06:02:15;17.10;96.10
63435;DHT22;68814;50.872;5.306;2023-07-20T06:04:41;17.20;95.80
63435;DHT22;68814;50.872;5.306;2023-07-20T06:07:08;17.20;96.00
63435;DHT22;68814;50.872;5.306;2023-07-20T06:10:09;17.30;95.60
63435;DHT22;68814;50.872;5.306;2023-07-20T06:12:57;17.40;95.50
63435;DHT22;68814;50.872;5.306;2023-07-20T06:15:34;17.40;95.60
63435;DHT22;68814;50.872;5.306;2023-07-20T06:18:04;17.50;95.50
63435;DHT22;68814;50.872;5.306;2023-07-20T06:20:30;17.60;94.90
63435;DHT22;68814;50.872;5.306;2023-07-20T06:22:56;17.70;94.80
63435;DHT22;68814;50.872;5.306;2023-07-20T06:25:21;17.70;94.20
63435;DHT22;68814;50.872;5.306;2023-07-20T06:27:49;17.80;94.30
63435;DHT22;68814;50.872;5.306;2023-07-20T06:30:19;17.80;94.20
63435;DHT22;68814;50.872;5.306;2023-07-20T06:32:45;17.90;94.00
63435;DHT22;68814;50.872;5.306;2023-07-20T06:35:11;18.00;94.20
63435;DHT22;68814;50.872;5.306;2023-07-20T06:37:36;18.00;93.90
63435;DHT22;68814;50.872;5.306;2023-07-20T06:40:03;18.00;93.60
63435;DHT22;68814;50.872;5.306;2023-07-20T06:42:30;18.10;93.70
63435;DHT22;68814;50.872;5.306;2023-07-20T06:44:57;18.10;93.50
63435;DHT22;68814;50.872;5.306;2023-07-20T06:47:25;18.20;93.10
63435;DHT22;68814;50.872;5.306;2023-07-20T06:49:52;18.20;93.10
63435;DHT22;68814;50.872;5.306;2023-07-20T06:52:18;18.20;93.00
63435;DHT22;68814;50.872;5.306;2023-07-20T06:54:43;18.30;93.10
63435;DHT22;68814;50.872;5.306;2023-07-20T06:57:10;18.40;92.80
63435;DHT22;68814;50.872;5.306;2023-07-20T06:59:35;18.50;92.70
63435;DHT22;68814;50.872;5.306;2023-07-20T07:02:01;18.50;92.10
63435;DHT22;68814;50.872;5.306;2023-07-20T07:04:26;18.60;92.70
63435;DHT22;68814;50.872;5.306;2023-07-20T07:06:53;18.70;92.30
63435;DHT22;68814;50.872;5.306;2023-07-20T07:09:18;18.80;91.70
63435;DHT22;68814;50.872;5.306;2023-07-20T07:11:44;18.80;91.40
63435;DHT22;68814;50.872;5.306;2023-07-20T07:14:12;18.90;91.10
63435;DHT22;68814;50.872;5.306;2023-07-20T07:16:38;19.00;91.00
63435;DHT22;68814;50.872;5.306;2023-07-20T07:19:03;19.00;91.00
63435;DHT22;68814;50.872;5.306;2023-07-20T07:21:31;19.10;91.20
63435;DHT22;68814;50.872;5.306;2023-07-20T07:23:57;19.20;90.90
63435;DHT22;68814;50.872;5.306;2023-07-20T07:26:23;19.30;90.90
63435;DHT22;68814;50.872;5.306;2023-07-20T07:28:49;19.40;90.70
63435;DHT22;68814;50.872;5.306;2023-07-20T07:31:15;19.50;90.40
63435;DHT22;68814;50.872;5.306;2023-07-20T07:33:41;19.60;90.40
63435;DHT22;68814;50.872;5.306;2023-07-20T07:36:06;19.60;89.00
63435;DHT22;68814;50.872;5.306;2023-07-20T07:38:32;19.70;89.30
63435;DHT22;68814;50.872;5.306;2023-07-20T07:40:58;19.80;88.90
63435;DHT22;68814;50.872;5.306;2023-07-20T07:43:24;19.80;87.40
63435;DHT22;68814;50.872;5.306;2023-07-20T07:45:50;19.80;88.30
63435;DHT22;68814;50.872;5.306;2023-07-20T07:48:15;19.80;88.80
63435;DHT22;68814;50.872;5.306;2023-07-20T07:50:42;20.00;87.80
63435;DHT22;68814;50.872;5.306;2023-07-20T07:53:08;20.00;87.30
63435;DHT22;68814;50.872;5.306;2023-07-20T07:55:35;20.00;87.30
63435;DHT22;68814;50.872;5.306;2023-07-20T07:58:01;20.10;85.90
63435;DHT22;68814;50.872;5.306;2023-07-20T08:00:26;20.20;86.20
63435;DHT22;68814;50.872;5.306;2023-07-20T08:02:52;20.30;85.40
63435;DHT22;68814;50.872;5.306;2023-07-20T08:05:18;20.40;85.50
63435;DHT22;68814;50.872;5.306;2023-07-20T08:07:43;20.50;86.20
63435;DHT22;68814;50.872;5.306;2023-07-20T08:10:09;20.70;83.70
63435;DHT22;68814;50.872;5.306;2023-07-20T08:12:35;20.80;83.80
63435;DHT22;68814;50.872;5.306;2023-07-20T08:15:01;21.00;83.50
63435;DHT22;68814;50.872;5.306;2023-07-20T08:17:26;21.00;83.40
63435;DHT22;68814;50.872;5.306;2023-07-20T08:19:52;21.10;83.20
63435;DHT22;68814;50.872;5.306;2023-07-20T08:22:18;21.10;81.20
63435;DHT22;68814;50.872;5.306;2023-07-20T08:24:44;21.20;82.80
63435;DHT22;68814;50.872;5.306;2023-07-20T08:27:10;21.40;82.40
63435;DHT22;68814;50.872;5.306;2023-07-20T08:29:36;21.50;79.10
63435;DHT22;68814;50.872;5.306;2023-07-20T08:32:03;21.60;79.30
63435;DHT22;68814;50.872;5.306;2023-07-20T08:34:30;21.60;78.70
63435;DHT22;68814;50.872;5.306;2023-07-20T08:36:56;21.60;79.00
63435;DHT22;68814;50.872;5.306;2023-07-20T08:39:22;21.60;78.80
63435;DHT22;68814;50.872;5.306;2023-07-20T08:41:48;21.70;77.40
63435;DHT22;68814;50.872;5.306;2023-07-20T08:44:14;21.60;77.50
63435;DHT22;68814;50.872;5.306;2023-07-20T08:46:41;21.60;78.00
63435;DHT22;68814;50.872;5.306;2023-07-20T08:49:08;21.60;75.40
63435;DHT22;68814;50.872;5.306;2023-07-20T08:51:35;21.50;75.70
63435;DHT22;68814;50.872;5.306;2023-07-20T08:54:02;21.50;76.00
63435;DHT22;68814;50.872;5.306;2023-07-20T08:56:27;21.60;76.10
63435;DHT22;68814;50.872;5.306;2023-07-20T08:58:55;21.70;77.60
63435;DHT22;68814;50.872;5.306;2023-07-20T09:01:21;21.90;76.30
63435;DHT22;68814;50.872;5.306;2023-07-20T09:03:47;22.00;75.00
63435;DHT22;68814;50.872;5.306;2023-07-20T09:06:14;22.00;76.40
63435;DHT22;68814;50.872;5.306;2023-07-20T09:08:41;22.20;75.60
63435;DHT22;68814;50.872;5.306;2023-07-20T09:11:07;22.30;72.60
63435;DHT22;68814;50.872;5.306;2023-07-20T09:13:34;22.30;71.90
63435;DHT22;68814;50.872;5.306;2023-07-20T09:16:00;22.40;74.20
63435;DHT22;68814;50.872;5.306;2023-07-20T09:18:29;22.50;73.70
63435;DHT22;68814;50.872;5.306;2023-07-20T09:21:03;22.70;70.00
63435;DHT22;68814;50.872;5.306;2023-07-20T09:23:33;22.70;69.20
63435;DHT22;68814;50.872;5.306;2023-07-20T09:26:00;22.80;68.90
63435;DHT22;68814;50.872;5.306;2023-07-20T09:28:26;22.90;72.40
63435;DHT22;68814;50.872;5.306;2023-07-20T09:30:53;23.10;71.00
63435;DHT22;68814;50.872;5.306;2023-07-20T09:33:21;23.30;69.70
63435;DHT22;68814;50.872;5.306;2023-07-20T09:35:47;23.40;66.50
63435;DHT22;68814;50.872;5.306;2023-07-20T09:38:14;23.50;64.30
63435;DHT22;68814;50.872;5.306;2023-07-20T09:40:41;23.40;64.90
63435;DHT22;68814;50.872;5.306;2023-07-20T09:43:11;23.40;65.20
63435;DHT22;68814;50.872;5.306;2023-07-20T09:45:43;23.60;66.90
63435;DHT22;68814;50.872;5.306;2023-07-20T09:48:10;23.70;64.70
63435;DHT22;68814;50.872;5.306;2023-07-20T09:50:43;23.70;64.60
63435;DHT22;68814;50.872;5.306;2023-07-20T09:53:12;24.00;66.90
63435;DHT22;68814;50.872;5.306;2023-07-20T09:55:40;24.10;63.40
63435;DHT22;68814;50.872;5.306;2023-07-20T09:58:08;24.00;61.80
63435;DHT22;68814;50.872;5.306;2023-07-20T10:00:36;24.00;61.20
63435;DHT22;68814;50.872;5.306;2023-07-20T10:03:04;24.00;62.20
63435;DHT22;68814;50.872;5.306;2023-07-20T10:05:33;24.10;62.20
63435;DHT22;68814;50.872;5.306;2023-07-20T10:08:02;24.20;61.30
63435;DHT22;68814;50.872;5.306;2023-07-20T10:10:29;24.10;58.70
63435;DHT22;68814;50.872;5.306;2023-07-20T10:12:57;24.10;60.90
63435;DHT22;68814;50.872;5.306;2023-07-20T10:15:33;24.20;60.50
63435;DHT22;68814;50.872;5.306;2023-07-20T10:18:28;24.20;59.20
63435;DHT22;68814;50.872;5.306;2023-07-20T10:20:55;24.20;61.40
63435;DHT22;68814;50.872;5.306;2023-07-20T10:23:22;24.30;59.30
63435;DHT22;68814;50.872;5.306;2023-07-20T10:25:48;24.50;59.70
63435;DHT22;68814;50.872;5.306;2023-07-20T10:28:15;24.60;59.30
63435;DHT22;68814;50.872;5.306;2023-07-20T10:30:41;24.60;58.40
63435;DHT22;68814;50.872;5.306;2023-07-20T10:33:08;24.60;59.60
63435;DHT22;68814;50.872;5.306;2023-07-20T10:35:54;24.80;58.40
63435;DHT22;68814;50.872;5.306;2023-07-20T10:38:22;24.80;58.10
63435;DHT22;68814;50.872;5.306;2023-07-20T10:41:03;24.80;56.20
63435;DHT22;68814;50.872;5.306;2023-07-20T10:43:28;24.90;56.40
63435;DHT22;68814;50.872;5.306;2023-07-20T10:45:55;25.00;58.30
63435;DHT22;68814;50.872;5.306;2023-07-20T10:48:23;25.30;56.10
63435;DHT22;68814;50.872;5.306;2023-07-20T10:54:02;25.60;57.40
63435;DHT22;68814;50.872;5.306;2023-07-20T10:56:28;26.00;55.90
63435;DHT22;68814;50.872;5.306;2023-07-20T10:59:01;26.30;54.10
63435;DHT22;68814;50.872;5.306;2023-07-20T11:01:43;26.50;51.80
63435;DHT22;68814;50.872;5.306;2023-07-20T11:04:09;26.60;52.20
63435;DHT22;68814;50.872;5.306;2023-07-20T11:06:35;26.80;49.90
63435;DHT22;68814;50.872;5.306;2023-07-20T11:09:15;26.90;51.60
63435;DHT22;68814;50.872;5.306;2023-07-20T11:11:47;26.90;48.50
63435;DHT22;68814;50.872;5.306;2023-07-20T11:14:23;26.80;50.00
63435;DHT22;68814;50.872;5.306;2023-07-20T11:16:49;27.00;51.40
63435;DHT22;68814;50.872;5.306;2023-07-20T11:19:24;27.10;52.50
63435;DHT22;68814;50.872;5.306;2023-07-20T11:21:57;27.20;52.10
63435;DHT22;68814;50.872;5.306;2023-07-20T11:24:24;27.10;49.50
63435;DHT22;68814;50.872;5.306;2023-07-20T11:26:51;27.00;49.10
63435;DHT22;68814;50.872;5.306;2023-07-20T11:29:19;26.80;48.20
63435;DHT22;68814;50.872;5.306;2023-07-20T11:31:45;26.50;49.00
63435;DHT22;68814;50.872;5.306;2023-07-20T11:34:16;26.40;49.70
63435;DHT22;68814;50.872;5.306;2023-07-20T11:36:44;26.20;49.70
63435;DHT22;68814;50.872;5.306;2023-07-20T11:39:11;26.20;50.70
63435;DHT22;68814;50.872;5.306;2023-07-20T11:41:38;26.20;49.50
63435;DHT22;68814;50.872;5.306;2023-07-20T11:44:06;26.10;50.30
63435;DHT22;68814;50.872;5.306;2023-07-20T11:46:33;26.10;50.70
63435;DHT22;68814;50.872;5.306;2023-07-20T11:49:00;26.20;53.20
63435;DHT22;68814;50.872;5.306;2023-07-20T11:51:30;26.40;49.20
63435;DHT22;68814;50.872;5.306;2023-07-20T11:53:56;26.40;49.70
63435;DHT22;68814;50.872;5.306;2023-07-20T11:56:24;26.40;50.70
63435;DHT22;68814;50.872;5.306;2023-07-20T11:58:50;26.40;48.70
63435;DHT22;68814;50.872;5.306;2023-07-20T12:01:17;26.40;49.30
63435;DHT22;68814;50.872;5.306;2023-07-20T12:03:43;26.40;50.00
63435;DHT22;68814;50.872;5.306;2023-07-20T12:06:13;26.40;47.60
63435;DHT22;68814;50.872;5.306;2023-07-20T12:08:40;26.50;50.00
63435;DHT22;68814;50.872;5.306;2023-07-20T12:11:06;26.70;50.20
63435;DHT22;68814;50.872;5.306;2023-07-20T12:13:43;26.90;47.90
63435;DHT22;68814;50.872;5.306;2023-07-20T12:16:15;26.90;48.20
63435;DHT22;68814;50.872;5.306;2023-07-20T12:18:43;27.20;49.20
63435;DHT22;68814;50.872;5.306;2023-07-20T12:21:09;27.50;48.70
63435;DHT22;68814;50.872;5.306;2023-07-20T12:23:39;27.80;47.70
63435;DHT22;68814;50.872;5.306;2023-07-20T12:26:09;28.00;46.30
63435;DHT22;68814;50.872;5.306;2023-07-20T12:28:41;28.10;48.50
63435;DHT22;68814;50.872;5.306;2023-07-20T12:31:10;28.10;48.10
63435;DHT22;68814;50.872;5.306;2023-07-20T12:33:36;28.30;47.90
63435;DHT22;68814;50.872;5.306;2023-07-20T12:36:03;28.30;44.90
63435;DHT22;68814;50.872;5.306;2023-07-20T12:38:29;28.20;44.40
63435;DHT22;68814;50.872;5.306;2023-07-20T12:40:56;28.10;47.00
63435;DHT22;68814;50.872;5.306;2023-07-20T12:43:22;28.00;44.70
63435;DHT22;68814;50.872;5.306;2023-07-20T12:45:48;27.90;44.10
63435;DHT22;68814;50.872;5.306;2023-07-20T12:48:13;27.80;44.00
63435;DHT22;68814;50.872;5.306;2023-07-20T12:50:42;27.90;45.10
63435;DHT22;68814;50.872;5.306;2023-07-20T12:53:08;28.00;47.60
63435;DHT22;68814;50.872;5.306;2023-07-20T12:55:34;28.30;45.90
63435;DHT22;68814;50.872;5.306;2023-07-20T12:57:59;28.50;44.80
63435;DHT22;68814;50.872;5.306;2023-07-20T13:00:25;28.60;45.60
63435;DHT22;68814;50.872;5.306;2023-07-20T13:02:51;28.70;44.10
63435;DHT22;68814;50.872;5.306;2023-07-20T13:05:17;28.70;47.20
63435;DHT22;68814;50.872;5.306;2023-07-20T13:07:43;28.90;46.60
63435;DHT22;68814;50.872;5.306;2023-07-20T13:10:10;29.20;47.20
63435;DHT22;68814;50.872;5.306;2023-07-20T13:12:37;29.40;47.30
63435;DHT22;68814;50.872;5.306;2023-07-20T13:15:08;29.40;45.50
63435;DHT22;68814;50.872;5.306;2023-07-20T13:17:35;29.30;43.90
63435;DHT22;68814;50.872;5.306;2023-07-20T13:20:01;29.10;43.40
63435;DHT22;68814;50.872;5.306;2023-07-20T13:22:28;28.90;43.10
63435;DHT22;68814;50.872;5.306;2023-07-20T13:24:55;28.80;46.10
63435;DHT22;68814;50.872;5.306;2023-07-20T13:27:20;28.90;44.10
63435;DHT22;68814;50.872;5.306;2023-07-20T13:29:46;29.10;45.20
63435;DHT22;68814;50.872;5.306;2023-07-20T13:32:15;29.30;42.10
63435;DHT22;68814;50.872;5.306;2023-07-20T13:34:43;29.40;42.90
63435;DHT22;68814;50.872;5.306;2023-07-20T13:37:10;29.50;41.60
63435;DHT22;68814;50.872;5.306;2023-07-20T13:39:36;29.60;44.40
63435;DHT22;68814;50.872;5.306;2023-07-20T13:42:10;29.90;46.60
63435;DHT22;68814;50.872;5.306;2023-07-20T13:44:37;30.30;43.30
63435;DHT22;68814;50.872;5.306;2023-07-20T13:47:03;30.50;42.50
63435;DHT22;68814;50.872;5.306;2023-07-20T13:49:31;30.80;42.90
63435;DHT22;68814;50.872;5.306;2023-07-20T13:51:56;31.20;42.60
63435;DHT22;68814;50.872;5.306;2023-07-20T13:54:23;31.60;42.40
63435;DHT22;68814;50.872;5.306;2023-07-20T13:56:49;31.90;42.60
63435;DHT22;68814;50.872;5.306;2023-07-20T13:59:14;32.40;43.00
63435;DHT22;68814;50.872;5.306;2023-07-20T14:01:40;33.00;42.10
63435;DHT22;68814;50.872;5.306;2023-07-20T14:04:05;33.40;40.80
63435;DHT22;68814;50.872;5.306;2023-07-20T14:06:32;33.80;40.50
63435;DHT22;68814;50.872;5.306;2023-07-20T14:08:58;34.00;38.20
63435;DHT22;68814;50.872;5.306;2023-07-20T14:11:24;34.20;39.40
63435;DHT22;68814;50.872;5.306;2023-07-20T14:13:51;34.10;37.10
63435;DHT22;68814;50.872;5.306;2023-07-20T14:16:18;34.10;37.70
63435;DHT22;68814;50.872;5.306;2023-07-20T14:18:43;34.30;38.50
63435;DHT22;68814;50.872;5.306;2023-07-20T14:21:12;34.30;37.40
63435;DHT22;68814;50.872;5.306;2023-07-20T14:23:38;34.40;36.20
63435;DHT22;68814;50.872;5.306;2023-07-20T14:26:03;34.30;36.30
63435;DHT22;68814;50.872;5.306;2023-07-20T14:31:13;34.20;37.70
63435;DHT22;68814;50.872;5.306;2023-07-20T14:33:39;34.50;37.60
63435;DHT22;68814;50.872;5.306;2023-07-20T14:36:09;35.00;38.50
63435;DHT22;68814;50.872;5.306;2023-07-20T14:38:38;35.50;37.50
63435;DHT22;68814;50.872;5.306;2023-07-20T14:41:06;35.80;35.60
63435;DHT22;68814;50.872;5.306;2023-07-20T14:43:32;35.80;33.20
63435;DHT22;68814;50.872;5.306;2023-07-20T14:45:58;35.40;35.00
63435;DHT22;68814;50.872;5.306;2023-07-20T14:48:23;35.10;34.40
63435;DHT22;68814;50.872;5.306;2023-07-20T14:50:49;35.00;35.00
63435;DHT22;68814;50.872;5.306;2023-07-20T14:53:14;34.80;37.70
63435;DHT22;68814;50.872;5.306;2023-07-20T14:55:41;34.60;36.00
63435;DHT22;68814;50.872;5.306;2023-07-20T14:58:07;34.40;36.60
63435;DHT22;68814;50.872;5.306;2023-07-20T15:00:33;33.90;34.60
63435;DHT22;68814;50.872;5.306;2023-07-20T15:02:59;33.30;36.50
63435;DHT22;68814;50.872;5.306;2023-07-20T15:05:25;33.30;37.40
63435;DHT22;68814;50.872;5.306;2023-07-20T15:07:52;33.20;37.20
63435;DHT22;68814;50.872;5.306;2023-07-20T15:10:19;33.20;37.60
63435;DHT22;68814;50.872;5.306;2023-07-20T15:12:44;33.20;36.50
63435;DHT22;68814;50.872;5.306;2023-07-20T15:15:14;33.00;35.00
63435;DHT22;68814;50.872;5.306;2023-07-20T15:17:44;32.60;35.30
63435;DHT22;68814;50.872;5.306;2023-07-20T15:20:11;32.10;35.80
63435;DHT22;68814;50.872;5.306;2023-07-20T15:22:37;31.70;36.40
63435;DHT22;68814;50.872;5.306;2023-07-20T15:25:05;31.20;36.60
63435;DHT22;68814;50.872;5.306;2023-07-20T15:27:32;30.70;36.80
63435;DHT22;68814;50.872;5.306;2023-07-20T15:29:57;30.30;39.10
63435;DHT22;68814;50.872;5.306;2023-07-20T15:32:23;30.10;39.30
63435;DHT22;68814;50.872;5.306;2023-07-20T15:34:49;29.70;39.40
63435;DHT22;68814;50.872;5.306;2023-07-20T15:37:14;29.50;40.30
63435;DHT22;68814;50.872;5.306;2023-07-20T15:39:40;29.20;39.80
63435;DHT22;68814;50.872;5.306;2023-07-20T15:42:07;28.90;38.80
63435;DHT22;68814;50.872;5.306;2023-07-20T15:44:33;28.70;40.20
63435;DHT22;68814;50.872;5.306;2023-07-20T15:46:58;28.40;40.90
63435;DHT22;68814;50.872;5.306;2023-07-20T15:49:24;28.10;41.20